Time;durP1;ratioP1;P1;durP2;ratioP2;P2;SDS_P1;SDS_P2;PMS_P1;PMS_P2;Temp;Humidity;BMP_temperature;BMP_pressure;BME280_temperature;BME280_humidity;BME280_pressure;Samples;Min_cycle;Max_cycle;Signal;HPM_P1;HPM_P2
2023/10/13 00:03:18;;;;;;;9.25;4.20;;;;;;;;;;8271792;28;20041;-73
2023/10/13 00:07:18;;;;;;;10.50;4.20;;;;;;;;;;8280635;28;21012;-73
2023/10/13 00:11:21;;;;;;;10.57;4.10;;;;;;;;;;8275119;28;20029;-73
2023/10/13 00:15:27;;;;;;;13.55;4.15;;;;;;;;;;8277397;28;20033;-73
2023/10/13 00:19:28;;;;;;;8.70;3.97;;;;;;;;;;8276478;28;20029;-72
2023/10/13 00:23:28;;;;;;;6.95;3.80;;;;;;;;;;8276010;28;20028;-74
2023/10/13 00:27:29;;;;;;;11.35;4.15;;;;;;;;;;8275807;28;20040;-73
2023/10/13 00:31:33;;;;;;;10.85;3.70;;;;;;;;;;8274403;28;20048;-73
2023/10/13 00:35:36;;;;;;;;;;;;;;;;;;8274488;28;20045;-73
2023/10/13 00:39:37;;;;;;;9.73;3.43;;;;;;;;;;8276190;28;19923;-73
2023/10/13 00:43:43;;;;;;;13.73;3.80;;;;;;;;;;8263723;28;20028;-74
2023/10/13 00:47:56;;;;;;;9.77;3.47;;;;;;;;;;8276231;28;20041;-73
2023/10/13 00:51:57;;;;;;;13.00;3.60;;;;;;;;;;8275329;28;21231;-73
2023/10/13 00:55:57;;;;;;;9.88;3.40;;;;;;;;;;8274378;28;20924;-73
2023/10/13 00:59:59;;;;;;;9.05;3.60;;;;;;;;;;8275055;28;20044;-73
2023/10/13 01:03:59;;;;;;;13.00;3.80;;;;;;;;;;8252533;28;20056;-74
2023/10/13 01:08:01;;;;;;;11.50;3.60;;;;;;;;;;8270787;28;20032;-73
2023/10/13 01:12:02;;;;;;;11.95;3.65;;;;;;;;;;8269029;28;21051;-72
2023/10/13 01:16:04;;;;;;;11.63;3.72;;;;;;;;;;8271225;28;20030;-73
2023/10/13 01:20:05;;;;;;;10.80;3.78;;;;;;;;;;8271233;28;20025;-72
2023/10/13 01:24:07;;;;;;;8.45;3.30;;;;;;;;;;8271799;28;20912;-73
2023/10/13 01:28:09;;;;;;;9.80;3.77;;;;;;;;;;8272813;28;20021;-73
2023/10/13 01:32:12;;;;;;;11.68;3.88;;;;;;;;;;8271338;28;20048;-73
2023/10/13 01:36:12;;;;;;;14.40;3.95;;;;;;;;;;8256379;28;20157;-73
2023/10/13 01:40:18;;;;;;;13.18;3.78;;;;;;;;;;8271732;28;21110;-73
2023/10/13 01:44:19;;;;;;;14.10;3.70;;;;;;;;;;8275371;28;20052;-73
2023/10/13 01:48:21;;;;;;;8.82;3.97;;;;;;;;;;8273202;28;20026;-73
2023/10/13 01:52:22;;;;;;;9.40;4.00;;;;;;;;;;8272221;28;20150;-72
2023/10/13 01:56:23;;;;;;;12.93;4.28;;;;;;;;;;8272590;28;20797;-72
2023/10/13 02:00:25;;;;;;;12.07;4.35;;;;;;;;;;8274929;28;20755;-73
2023/10/13 02:04:27;;;;;;;14.13;4.97;;;;;;;;;;8265352;28;20022;-73
2023/10/13 02:08:27;;;;;;;15.35;4.22;;;;;;;;;;8272268;28;20045;-73
2023/10/13 02:12:42;;;;;;;12.18;3.88;;;;;;;;;;8269715;28;20024;-73
2023/10/13 02:16:42;;;;;;;9.80;4.03;;;;;;;;;;8269859;28;20072;-73
2023/10/13 02:20:44;;;;;;;10.80;3.97;;;;;;;;;;8271979;28;20063;-73
2023/10/13 02:24:45;;;;;;;7.43;3.60;;;;;;;;;;8277021;28;20780;-73
2023/10/13 02:28:50;;;;;;;7.53;3.63;;;;;;;;;;8268734;28;20386;-73
2023/10/13 02:32:53;;;;;;;12.23;3.60;;;;;;;;;;8260834;28;20167;-73
2023/10/13 02:36:54;;;;;;;13.20;4.18;;;;;;;;;;8283463;28;21442;-73
2023/10/13 02:40:54;;;;;;;10.43;3.72;;;;;;;;;;8266255;28;20033;-72
2023/10/13 02:44:57;;;;;;;12.23;3.88;;;;;;;;;;8283302;28;20627;-73
2023/10/13 02:48:59;;;;;;;6.45;3.95;;;;;;;;;;8281821;28;20087;-72
2023/10/13 02:52:59;;;;;;;8.85;3.80;;;;;;;;;;8284375;28;20084;-73
2023/10/13 02:57:03;;;;;;;7.68;3.53;;;;;;;;;;8286052;28;20380;-73
2023/10/13 03:01:18;;;;;;;9.77;3.65;;;;;;;;;;8284754;28;20148;-73
2023/10/13 03:05:18;;;;;;;8.13;3.83;;;;;;;;;;8284637;28;20032;-72
2023/10/13 03:09:19;;;;;;;20.30;4.88;;;;;;;;;;8282893;28;20029;-73
2023/10/13 03:13:19;;;;;;;10.10;4.55;;;;;;;;;;8281936;28;20048;-73
2023/10/13 03:17:23;;;;;;;15.07;4.70;;;;;;;;;;8274686;28;20856;-73
2023/10/13 03:21:29;;;;;;;12.45;4.43;;;;;;;;;;8284541;28;21315;-72
2023/10/13 03:25:36;;;;;;;12.60;5.00;;;;;;;;;;8285427;28;20033;-73
2023/10/13 03:29:43;;;;;;;11.07;4.45;;;;;;;;;;8285121;28;20033;-73
2023/10/13 03:33:46;;;;;;;11.43;4.05;;;;;;;;;;8283978;28;20628;-73
2023/10/13 03:37:46;;;;;;;14.57;4.25;;;;;;;;;;8284186;28;20482;-72
2023/10/13 03:41:53;;;;;;;10.60;4.20;;;;;;;;;;8284177;28;20025;-73
2023/10/13 03:46:07;;;;;;;13.27;4.15;;;;;;;;;;8270674;28;20191;-73
2023/10/13 03:50:16;;;;;;;9.95;4.20;;;;;;;;;;8286259;28;21026;-73
2023/10/13 03:54:18;;;;;;;12.55;4.38;;;;;;;;;;8283877;28;22937;-73
2023/10/13 03:58:18;;;;;;;13.40;4.32;;;;;;;;;;8287015;28;20406;-73
2023/10/13 04:02:21;;;;;;;8.82;4.30;;;;;;;;;;8263821;28;20060;-73
2023/10/13 04:06:43;;;;;;;13.45;4.22;;;;;;;;;;8274580;28;20037;-73
2023/10/13 04:31:46;;;;;;;12.93;3.90;;;;;;;;;;8283831;28;20048;-73
2023/10/13 04:35:58;;;;;;;11.75;4.00;;;;;;;;;;8283797;28;20021;-73
2023/10/13 04:40:11;;;;;;;17.55;4.72;;;;;;;;;;8262977;28;20117;-73
2023/10/13 04:48:38;;;;;;;10.88;4.00;;;;;;;;;;8277281;28;20432;-72
2023/10/13 04:52:50;;;;;;;11.82;4.43;;;;;;;;;;8283655;28;20462;-73
2023/10/13 04:57:22;;;;;;;7.50;3.63;;;;;;;;;;8263396;28;20047;-73
2023/10/13 05:44:37;;;;;;;13.70;4.15;;;;;;;;;;8278583;28;20094;-76
2023/10/13 06:31:46;;;;;;;5.20;3.58;;;;;;;;;;8283802;28;20061;-76
2023/10/13 06:35:50;;;;;;;10.63;4.15;;;;;;;;;;8284632;28;20029;-76
2023/10/13 06:39:50;;;;;;;13.80;3.88;;;;;;;;;;8284769;28;20013;-76
2023/10/13 06:43:59;;;;;;;13.68;4.25;;;;;;;;;;8286918;28;20658;-76
2023/10/13 06:47:59;;;;;;;8.25;4.13;;;;;;;;;;8280354;28;20022;-76
2023/10/13 06:52:00;;;;;;;10.37;4.30;;;;;;;;;;8282463;28;20026;-76
2023/10/13 06:56:00;;;;;;;9.35;3.90;;;;;;;;;;8281334;28;20025;-76
2023/10/13 07:00:07;;;;;;;7.85;3.95;;;;;;;;;;8279773;28;20076;-77
2023/10/13 07:04:14;;;;;;;9.55;4.25;;;;;;;;;;8282030;28;20036;-76
2023/10/13 07:08:17;;;;;;;10.55;3.90;;;;;;;;;;8267931;28;20037;-75
2023/10/13 07:12:26;;;;;;;;;;;;;;;;;;8272169;28;20156;-76
2023/10/13 07:16:35;;;;;;;5.32;4.00;;;;;;;;;;8285266;28;19996;-76
2023/10/13 07:20:36;;;;;;;11.80;3.70;;;;;;;;;;8290134;28;20033;-76
2023/10/13 07:24:39;;;;;;;9.73;3.42;;;;;;;;;;8291158;28;20037;-76
2023/10/13 07:28:43;;;;;;;7.70;3.95;;;;;;;;;;8293508;28;20124;-76
2023/10/13 07:32:47;;;;;;;7.38;3.38;;;;;;;;;;8288189;28;20742;-77
2023/10/13 07:36:49;;;;;;;7.78;3.30;;;;;;;;;;8290258;28;20030;-76
2023/10/13 07:40:52;;;;;;;8.23;3.53;;;;;;;;;;8286802;28;20033;-76
2023/10/13 07:44:55;;;;;;;7.32;3.42;;;;;;;;;;8291550;28;20144;-76
2023/10/13 07:49:08;;;;;;;9.70;3.33;;;;;;;;;;8289729;28;20034;-76
2023/10/13 07:53:34;;;;;;;9.75;3.60;;;;;;;;;;8278876;28;20040;-76
2023/10/13 07:57:29;;;;;;;6.60;3.75;;;;;;;;;;8290244;28;20037;-77
2023/10/13 08:01:30;;;;;;;9.50;4.25;;;;;;;;;;8287166;28;20036;-76
2023/10/13 08:05:55;;;;;;;9.40;3.50;;;;;;;;;;8291915;28;20025;-76
2023/10/13 08:09:51;;;;;;;8.23;3.42;;;;;;;;;;8288562;28;20044;-76
2023/10/13 08:13:59;;;;;;;10.95;4.18;;;;;;;;;;8289080;28;20029;-76
2023/10/13 08:18:04;;;;;;;8.57;4.07;;;;;;;;;;8286334;28;20068;-76
2023/10/13 08:26:29;;;;;;;8.05;3.95;;;;;;;;;;8289173;28;20031;-76
2023/10/13 08:30:30;;;;;;;11.23;4.00;;;;;;;;;;8286445;28;20532;-76
2023/10/13 08:34:38;;;;;;;7.30;3.72;;;;;;;;;;8285732;28;20701;-76
2023/10/13 08:38:50;;;;;;;5.80;3.80;;;;;;;;;;8287963;28;20087;-77
2023/10/13 08:43:11;;;;;;;9.43;4.37;;;;;;;;;;8287458;28;20486;-76
2023/10/13 08:47:18;;;;;;;11.00;4.05;;;;;;;;;;8288640;28;20291;-76
2023/10/13 08:51:43;;;;;;;9.45;4.20;;;;;;;;;;8281088;28;20059;-77
2023/10/13 08:55:49;;;;;;;8.40;4.20;;;;;;;;;;8284244;28;20099;-76
2023/10/13 08:59:55;;;;;;;6.05;4.22;;;;;;;;;;8288270;28;20037;-76
2023/10/13 09:04:19;;;;;;;7.97;4.15;;;;;;;;;;8287953;28;20083;-77
2023/10/13 09:08:34;;;;;;;5.95;4.07;;;;;;;;;;8284493;28;20156;-76
2023/10/13 09:24:43;;;;;;;8.60;4.28;;;;;;;;;;8288986;28;20033;-76
2023/10/13 09:28:44;;;;;;;5.10;3.67;;;;;;;;;;8290066;28;20647;-75
2023/10/13 09:32:50;;;;;;;6.18;4.10;;;;;;;;;;8287073;28;20045;-77
2023/10/13 09:36:55;;;;;;;6.53;4.07;;;;;;;;;;8287258;28;20120;-76
2023/10/13 09:41:01;;;;;;;6.25;3.90;;;;;;;;;;8270345;28;20025;-75
2023/10/13 09:45:04;;;;;;;6.88;4.20;;;;;;;;;;8284045;28;21034;-76
2023/10/13 09:49:14;;;;;;;14.25;4.65;;;;;;;;;;8286428;28;20560;-75
2023/10/13 09:53:18;;;;;;;8.45;4.30;;;;;;;;;;8286805;28;20032;-76
2023/10/13 09:57:24;;;;;;;10.75;4.38;;;;;;;;;;8283076;28;20038;-76
2023/10/13 10:01:31;;;;;;;9.40;4.00;;;;;;;;;;8284312;28;20164;-76
2023/10/13 10:05:34;;;;;;;5.90;3.90;;;;;;;;;;8282071;28;20082;-76
2023/10/13 10:09:34;;;;;;;6.82;4.35;;;;;;;;;;8279921;28;20049;-74
2023/10/13 10:13:54;;;;;;;7.70;4.28;;;;;;;;;;8280536;28;20469;-75
2023/10/13 10:17:54;;;;;;;6.25;3.60;;;;;;;;;;8269888;28;20076;-75
2023/10/13 10:22:04;;;;;;;5.97;3.90;;;;;;;;;;8283613;28;20329;-75
2023/10/13 10:26:15;;;;;;;5.35;3.83;;;;;;;;;;8281538;28;20265;-75
2023/10/13 10:30:24;;;;;;;7.32;3.90;;;;;;;;;;8267712;28;20032;-75
2023/10/13 10:34:32;;;;;;;7.03;3.90;;;;;;;;;;8281425;28;20036;-75
2023/10/13 10:38:33;;;;;;;7.32;3.90;;;;;;;;;;8275962;28;20052;-75
2023/10/13 10:42:33;;;;;;;7.97;3.75;;;;;;;;;;8284892;28;20045;-75
2023/10/13 10:46:40;;;;;;;6.43;3.90;;;;;;;;;;8283504;28;20129;-75
2023/10/13 10:50:41;;;;;;;6.85;3.75;;;;;;;;;;8283260;28;20047;-75
2023/10/13 10:54:44;;;;;;;5.43;3.80;;;;;;;;;;8279906;28;20033;-75
2023/10/13 10:58:44;;;;;;;6.68;3.95;;;;;;;;;;8290887;28;20116;-75
2023/10/13 11:02:52;;;;;;;7.57;3.67;;;;;;;;;;8286390;28;20096;-75
2023/10/13 11:06:57;;;;;;;6.53;4.03;;;;;;;;;;8291721;28;20246;-75
2023/10/13 11:11:00;;;;;;;8.32;4.15;;;;;;;;;;8287674;28;20028;-75
2023/10/13 11:15:21;;;;;;;8.77;3.78;;;;;;;;;;8287643;28;20029;-75
2023/10/13 11:19:34;;;;;;;8.35;3.83;;;;;;;;;;8269339;28;20148;-75
2023/10/13 11:23:36;;;;;;;10.27;3.67;;;;;;;;;;8286356;28;20280;-75
2023/10/13 11:27:44;;;;;;;6.90;3.67;;;;;;;;;;8284619;28;20136;-78
2023/10/13 11:31:46;;;;;;;7.03;3.40;;;;;;;;;;8265993;28;20045;-75
2023/10/13 11:35:54;;;;;;;6.72;3.13;;;;;;;;;;8267448;28;20120;-75
2023/10/13 11:39:54;;;;;;;10.02;3.50;;;;;;;;;;8283536;28;20088;-75
2023/10/13 11:44:12;;;;;;;5.75;3.20;;;;;;;;;;8277916;28;20055;-75
2023/10/13 11:48:14;;;;;;;11.30;3.08;;;;;;;;;;8280185;28;20040;-75
2023/10/13 11:52:17;;;;;;;10.67;3.60;;;;;;;;;;8286644;28;20035;-75
2023/10/13 11:56:20;;;;;;;6.80;3.33;;;;;;;;;;8286884;28;20151;-75
2023/10/13 12:00:50;;;;;;;9.32;3.30;;;;;;;;;;8282323;28;20017;-76
2023/10/13 12:04:57;;;;;;;6.50;3.42;;;;;;;;;;8285589;28;20127;-75
2023/10/13 12:09:10;;;;;;;6.90;3.25;;;;;;;;;;8286145;28;20608;-75
2023/10/13 12:13:11;;;;;;;6.25;3.40;;;;;;;;;;8277486;28;20056;-75
2023/10/13 12:17:11;;;;;;;9.07;3.58;;;;;;;;;;8283937;28;20034;-75
2023/10/13 12:21:19;;;;;;;9.18;3.05;;;;;;;;;;8283223;28;20456;-75
2023/10/13 12:25:25;;;;;;;6.18;3.15;;;;;;;;;;8283762;28;20456;-75
2023/10/13 12:29:29;;;;;;;7.53;3.20;;;;;;;;;;8278758;28;20465;-74
2023/10/13 12:33:40;;;;;;;8.80;3.33;;;;;;;;;;8274821;28;20041;-75
2023/10/13 12:50:43;;;;;;;4.53;3.00;;;;;;;;;;8273266;28;21248;-75
2023/10/13 12:58:56;;;;;;;10.55;3.40;;;;;;;;;;8276757;28;20085;-74
2023/10/13 13:02:56;;;;;;;7.55;3.20;;;;;;;;;;8275175;28;20044;-74
2023/10/13 13:06:57;;;;;;;7.55;3.13;;;;;;;;;;8282376;28;20392;-74
2023/10/13 13:10:57;;;;;;;12.10;3.40;;;;;;;;;;8282194;28;20048;-75
2023/10/13 13:14:57;;;;;;;8.38;3.55;;;;;;;;;;8272738;28;20788;-74
2023/10/13 13:18:57;;;;;;;9.20;3.30;;;;;;;;;;8269974;28;20949;-74
2023/10/13 13:23:02;;;;;;;9.32;3.47;;;;;;;;;;8284244;28;20028;-74
2023/10/13 13:27:05;;;;;;;9.95;3.90;;;;;;;;;;8272726;28;20107;-75
2023/10/13 13:31:08;;;;;;;6.95;3.25;;;;;;;;;;8278317;28;20127;-70
2023/10/13 13:35:13;;;;;;;9.98;3.13;;;;;;;;;;8281838;28;20028;-73
2023/10/13 13:39:18;;;;;;;9.57;3.00;;;;;;;;;;8278362;28;20129;-74
2023/10/13 13:43:31;;;;;;;6.57;3.00;;;;;;;;;;8284584;28;20022;-73
2023/10/13 13:47:33;;;;;;;8.93;3.30;;;;;;;;;;8284524;28;20056;-74
2023/10/13 13:51:34;;;;;;;10.63;3.30;;;;;;;;;;8281254;28;20079;-74
2023/10/13 13:55:35;;;;;;;4.88;2.95;;;;;;;;;;8284825;28;20034;-73
2023/10/13 13:59:36;;;;;;;8.32;3.40;;;;;;;;;;8283434;28;20117;-74
2023/10/13 14:03:36;;;;;;;6.43;2.90;;;;;;;;;;8285151;28;20033;-73
2023/10/13 14:07:37;;;;;;;6.63;3.10;;;;;;;;;;8283116;28;20033;-74
2023/10/13 14:15:43;;;;;;;7.25;2.97;;;;;;;;;;8278763;28;20572;-74
2023/10/13 14:19:45;;;;;;;9.48;3.10;;;;;;;;;;8284007;28;20041;-75
2023/10/13 14:23:46;;;;;;;7.90;3.10;;;;;;;;;;8284962;28;20033;-74
2023/10/13 14:27:46;;;;;;;9.85;3.08;;;;;;;;;;8286158;28;20033;-75
2023/10/13 14:31:48;;;;;;;5.47;2.65;;;;;;;;;;8290865;28;20053;-74
2023/10/13 14:35:49;;;;;;;9.25;3.30;;;;;;;;;;8292913;28;20048;-74
2023/10/13 14:39:49;;;;;;;8.10;2.80;;;;;;;;;;8291905;28;20040;-74
2023/10/13 14:43:49;;;;;;;8.75;2.90;;;;;;;;;;8280811;28;20034;-74
2023/10/13 14:47:52;;;;;;;12.30;2.80;;;;;;;;;;8285654;28;20132;-74
2023/10/13 14:51:55;;;;;;;8.27;3.17;;;;;;;;;;8289848;28;20119;-74
2023/10/13 14:55:55;;;;;;;8.05;2.90;;;;;;;;;;8291652;28;20026;-75
2023/10/13 14:59:55;;;;;;;11.07;3.17;;;;;;;;;;8290365;28;20064;-74
2023/10/13 15:03:56;;;;;;;6.82;2.80;;;;;;;;;;8273699;28;20058;-73
2023/10/13 15:07:56;;;;;;;10.00;2.85;;;;;;;;;;8287472;28;20033;-74
2023/10/13 15:11:57;;;;;;;8.90;2.72;;;;;;;;;;8290500;28;20735;-74
2023/10/13 15:15:57;;;;;;;6.00;3.00;;;;;;;;;;8291503;28;20136;-73
2023/10/13 15:19:59;;;;;;;6.68;2.65;;;;;;;;;;8287145;28;20024;-74
2023/10/13 15:24:17;;;;;;;8.60;2.58;;;;;;;;;;8287037;28;20032;-74
2023/10/13 15:28:20;;;;;;;7.28;2.45;;;;;;;;;;8289174;28;21460;-74
2023/10/13 15:36:42;;;;;;;6.82;2.60;;;;;;;;;;8308102;28;20044;-75
2023/10/13 15:40:43;;;;;;;7.63;2.40;;;;;;;;;;8313400;28;20469;-76
2023/10/13 15:44:43;;;;;;;9.75;2.70;;;;;;;;;;8279865;28;20063;-76
2023/10/13 15:48:45;;;;;;;7.15;2.55;;;;;;;;;;8287639;28;20037;-74
2023/10/13 15:52:45;;;;;;;7.07;2.53;;;;;;;;;;8285520;28;20059;-75
2023/10/13 15:56:47;;;;;;;5.43;2.47;;;;;;;;;;8274381;28;20021;-75
2023/10/13 16:00:48;;;;;;;7.75;2.28;;;;;;;;;;8284754;28;20391;-75
2023/10/13 16:04:48;;;;;;;5.77;2.40;;;;;;;;;;8272564;28;20056;-75
2023/10/13 16:08:48;;;;;;;9.85;2.50;;;;;;;;;;8288446;28;20032;-74
2023/10/13 16:12:49;;;;;;;5.85;2.50;;;;;;;;;;8290408;28;20098;-75
2023/10/13 16:16:52;;;;;;;7.10;2.47;;;;;;;;;;8291685;28;20037;-75
2023/10/13 16:20:54;;;;;;;6.00;2.90;;;;;;;;;;8275740;28;20072;-72
2023/10/13 16:24:56;;;;;;;11.55;3.45;;;;;;;;;;8286263;28;20771;-73
2023/10/13 16:28:58;;;;;;;11.07;3.57;;;;;;;;;;8282813;28;20040;-72
2023/10/13 16:32:58;;;;;;;7.15;2.80;;;;;;;;;;8285418;28;20613;-72
2023/10/13 16:36:58;;;;;;;9.60;2.25;;;;;;;;;;8287239;28;20040;-73
2023/10/13 16:40:58;;;;;;;5.72;2.28;;;;;;;;;;8286526;28;20202;-72
2023/10/13 16:45:14;;;;;;;6.82;3.17;;;;;;;;;;8285285;28;20044;-72
2023/10/13 16:49:14;;;;;;;5.80;2.40;;;;;;;;;;8262650;28;20134;-72
2023/10/13 16:53:14;;;;;;;6.68;2.50;;;;;;;;;;8280118;28;20041;-72
2023/10/13 16:57:16;;;;;;;4.27;2.13;;;;;;;;;;8286313;28;23107;-72
2023/10/13 17:01:17;;;;;;;6.25;2.15;;;;;;;;;;8282985;28;20044;-72
2023/10/13 17:05:17;;;;;;;7.50;2.38;;;;;;;;;;8285844;28;20041;-72
2023/10/13 17:09:17;;;;;;;5.38;2.40;;;;;;;;;;8287135;28;20031;-72
2023/10/13 17:13:18;;;;;;;8.32;2.45;;;;;;;;;;8286008;28;20053;-72
2023/10/13 17:17:20;;;;;;;10.88;2.53;;;;;;;;;;8283946;28;20033;-72
2023/10/13 17:21:21;;;;;;;7.30;2.33;;;;;;;;;;8286517;28;20021;-73
2023/10/13 17:25:22;;;;;;;7.53;2.20;;;;;;;;;;8284086;28;20586;-72
2023/10/13 17:29:23;;;;;;;6.47;2.10;;;;;;;;;;8286746;28;20017;-72
2023/10/13 17:33:24;;;;;;;7.20;2.30;;;;;;;;;;8283904;28;21044;-72
2023/10/13 17:37:24;;;;;;;5.70;2.20;;;;;;;;;;8287893;28;20543;-72
2023/10/13 17:41:25;;;;;;;8.00;2.17;;;;;;;;;;8288693;28;20087;-73
2023/10/13 17:45:25;;;;;;;6.40;2.15;;;;;;;;;;8282645;28;20021;-72
2023/10/13 17:49:26;;;;;;;7.25;2.20;;;;;;;;;;8275357;28;20024;-72
2023/10/13 17:53:34;;;;;;;8.05;2.50;;;;;;;;;;8287900;28;20032;-72
2023/10/13 17:57:34;;;;;;;4.50;2.10;;;;;;;;;;8283360;28;20017;-72
2023/10/13 18:01:34;;;;;;;5.60;2.10;;;;;;;;;;8284454;28;20038;-72
2023/10/13 18:05:35;;;;;;;6.35;2.28;;;;;;;;;;8284180;28;20840;-72
2023/10/13 18:09:36;;;;;;;12.43;2.70;;;;;;;;;;8282347;28;20127;-72
2023/10/13 18:13:38;;;;;;;7.13;2.13;;;;;;;;;;8287940;28;20127;-72
2023/10/13 18:17:39;;;;;;;3.70;2.22;;;;;;;;;;8272735;28;20047;-72
2023/10/13 18:21:39;;;;;;;6.40;2.40;;;;;;;;;;8286339;28;20127;-72
2023/10/13 18:25:43;;;;;;;8.25;2.20;;;;;;;;;;8287489;28;20025;-72
2023/10/13 18:29:43;;;;;;;;;;;;;;;;;;8286235;28;20082;-72
2023/10/13 18:33:43;;;;;;;3.75;2.25;;;;;;;;;;8283845;28;19921;-72
2023/10/13 18:37:43;;;;;;;7.95;2.50;;;;;;;;;;8283145;28;20041;-72
2023/10/13 18:41:44;;;;;;;6.80;2.20;;;;;;;;;;8268223;28;20104;-72
2023/10/13 18:45:45;;;;;;;6.60;2.72;;;;;;;;;;8284434;28;20036;-72
2023/10/13 18:49:45;;;;;;;7.28;2.40;;;;;;;;;;8282968;28;20025;-73
2023/10/13 18:53:46;;;;;;;5.20;2.30;;;;;;;;;;8280783;28;20123;-72
2023/10/13 18:57:46;;;;;;;7.70;2.50;;;;;;;;;;8287171;28;20064;-72
2023/10/13 19:01:46;;;;;;;8.13;2.50;;;;;;;;;;8284207;28;20037;-71
2023/10/13 19:05:54;;;;;;;9.27;2.70;;;;;;;;;;8286696;28;20029;-72
2023/10/13 19:09:54;;;;;;;7.93;2.83;;;;;;;;;;8284174;28;20580;-71
2023/10/13 19:13:58;;;;;;;4.32;2.20;;;;;;;;;;8286975;28;20033;-72
2023/10/13 19:17:58;;;;;;;;;;;;;;;;;;8288820;28;20144;-72
2023/10/13 19:22:00;;;;;;;4.20;2.50;;;;;;;;;;8291694;28;19964;-72
2023/10/13 19:26:00;;;;;;;6.95;2.60;;;;;;;;;;8288537;28;20029;-73
2023/10/13 19:30:06;;;;;;;5.65;2.70;;;;;;;;;;8280773;28;20107;-72
2023/10/13 19:34:06;;;;;;;5.47;2.85;;;;;;;;;;8283784;28;20045;-72
2023/10/13 19:38:06;;;;;;;5.50;2.63;;;;;;;;;;8286555;28;20078;-72
2023/10/13 19:42:10;;;;;;;5.07;2.70;;;;;;;;;;8269531;28;20031;-72
2023/10/13 19:46:11;;;;;;;6.03;2.95;;;;;;;;;;8281629;28;20280;-72
2023/10/13 19:50:13;;;;;;;8.35;3.08;;;;;;;;;;8283142;28;20638;-72
2023/10/13 19:54:15;;;;;;;9.25;3.30;;;;;;;;;;8280501;28;20033;-72
2023/10/13 19:58:15;;;;;;;7.15;3.30;;;;;;;;;;8277126;28;20021;-72
2023/10/13 20:02:15;;;;;;;7.05;2.92;;;;;;;;;;8280325;28;20183;-72
2023/10/13 20:06:22;;;;;;;6.27;3.27;;;;;;;;;;8282966;28;20053;-72
2023/10/13 20:10:23;;;;;;;4.32;2.90;;;;;;;;;;8276639;28;20370;-72
2023/10/13 20:14:23;;;;;;;9.10;3.13;;;;;;;;;;8276186;28;20112;-72
2023/10/13 20:18:23;;;;;;;4.93;3.10;;;;;;;;;;8273506;28;20044;-72
2023/10/13 20:22:23;;;;;;;7.07;3.20;;;;;;;;;;8278411;28;20025;-72
2023/10/13 20:26:26;;;;;;;8.60;3.28;;;;;;;;;;8280076;28;20028;-72
2023/10/13 20:30:26;;;;;;;6.40;3.00;;;;;;;;;;8266135;28;20145;-72
2023/10/13 20:34:30;;;;;;;4.78;3.00;;;;;;;;;;8262352;28;20029;-72
2023/10/13 20:38:30;;;;;;;9.80;2.97;;;;;;;;;;8260384;28;20025;-73
2023/10/13 20:42:31;;;;;;;12.35;3.45;;;;;;;;;;8248984;28;20045;-73
2023/10/13 20:46:33;;;;;;;7.57;3.40;;;;;;;;;;8264491;28;20041;-73
2023/10/13 20:50:33;;;;;;;6.33;3.23;;;;;;;;;;8265644;28;20040;-72
2023/10/13 20:54:33;;;;;;;6.40;3.30;;;;;;;;;;8250235;28;20729;-72
2023/10/13 20:58:34;;;;;;;7.38;3.50;;;;;;;;;;8268214;28;20089;-72
2023/10/13 21:02:35;;;;;;;9.18;3.75;;;;;;;;;;8262815;28;20481;-72
2023/10/13 21:06:36;;;;;;;15.02;3.30;;;;;;;;;;8269305;28;20452;-72
2023/10/13 21:10:36;;;;;;;8.65;3.55;;;;;;;;;;8276740;28;21030;-72
2023/10/13 21:14:36;;;;;;;6.67;3.20;;;;;;;;;;8270197;28;20057;-72
2023/10/13 21:18:37;;;;;;;11.48;3.60;;;;;;;;;;8266287;28;20037;-73
2023/10/13 21:22:38;;;;;;;13.20;3.35;;;;;;;;;;8281770;28;20047;-72
2023/10/13 21:26:39;;;;;;;8.93;3.08;;;;;;;;;;8284600;28;20622;-72
2023/10/13 21:30:40;;;;;;;5.53;3.45;;;;;;;;;;8280475;28;20045;-72
2023/10/13 21:34:40;;;;;;;7.95;3.40;;;;;;;;;;8281231;28;20018;-73
2023/10/13 21:38:43;;;;;;;5.97;3.20;;;;;;;;;;8282682;28;20024;-73
2023/10/13 21:42:53;;;;;;;9.07;3.22;;;;;;;;;;8281911;28;20132;-72
2023/10/13 21:46:53;;;;;;;8.02;3.25;;;;;;;;;;8281138;28;20053;-72
2023/10/13 21:50:53;;;;;;;10.15;3.70;;;;;;;;;;8281205;28;20068;-72
2023/10/13 21:54:54;;;;;;;7.23;3.73;;;;;;;;;;8278700;28;20037;-72
2023/10/13 21:58:56;;;;;;;14.77;3.73;;;;;;;;;;8278110;28;20021;-72
2023/10/13 22:02:56;;;;;;;10.60;3.67;;;;;;;;;;8277731;28;20243;-73
2023/10/13 22:06:59;;;;;;;8.18;3.33;;;;;;;;;;8281924;28;20041;-72
2023/10/13 22:11:02;;;;;;;;;;;;;;;;;;8280785;28;20028;-72
2023/10/13 22:15:03;;;;;;;7.30;3.57;;;;;;;;;;8282566;28;19913;-72
2023/10/13 22:19:04;;;;;;;11.52;3.70;;;;;;;;;;8282255;28;20072;-73
2023/10/13 22:23:04;;;;;;;7.97;3.25;;;;;;;;;;8277849;28;20581;-73
2023/10/13 22:27:06;;;;;;;7.88;3.35;;;;;;;;;;8280044;28;20467;-72
2023/10/13 22:31:10;;;;;;;11.15;3.33;;;;;;;;;;8277103;28;20040;-72
2023/10/13 22:35:17;;;;;;;9.23;3.42;;;;;;;;;;8283112;28;20103;-73
2023/10/13 22:39:25;;;;;;;8.40;3.22;;;;;;;;;;8271075;28;20025;-72
2023/10/13 22:43:25;;;;;;;6.80;3.70;;;;;;;;;;8279345;28;20029;-72
2023/10/13 22:47:25;;;;;;;9.35;3.63;;;;;;;;;;8279314;28;20095;-73
2023/10/13 22:51:25;;;;;;;10.77;3.67;;;;;;;;;;8285961;28;20136;-72
2023/10/13 22:55:25;;;;;;;11.45;3.45;;;;;;;;;;8276763;28;20025;-72
2023/10/13 22:59:27;;;;;;;10.07;3.55;;;;;;;;;;8283575;28;20078;-72
2023/10/13 23:03:35;;;;;;;6.05;3.20;;;;;;;;;;8285186;28;20041;-72
2023/10/13 23:07:39;;;;;;;10.02;3.92;;;;;;;;;;8285094;28;20026;-72
2023/10/13 23:11:39;;;;;;;9.57;3.45;;;;;;;;;;8265533;28;20025;-72
2023/10/13 23:15:39;;;;;;;8.13;3.22;;;;;;;;;;8282357;28;20117;-72
2023/10/13 23:19:40;;;;;;;8.35;3.63;;;;;;;;;;8265238;28;20021;-72
2023/10/13 23:23:40;;;;;;;12.93;3.90;;;;;;;;;;8285525;28;20045;-72
2023/10/13 23:27:40;;;;;;;13.35;3.88;;;;;;;;;;8282513;28;20025;-72
2023/10/13 23:31:43;;;;;;;12.85;3.80;;;;;;;;;;8281068;28;20045;-73
2023/10/13 23:35:43;;;;;;;9.93;3.50;;;;;;;;;;8282751;28;20020;-72
2023/10/13 23:39:44;;;;;;;11.38;4.18;;;;;;;;;;8283104;28;20994;-72
2023/10/13 23:43:44;;;;;;;12.43;4.23;;;;;;;;;;8284547;28;20052;-73
2023/10/13 23:47:46;;;;;;;12.73;4.28;;;;;;;;;;8282369;28;20287;-72
2023/10/13 23:51:49;;;;;;;13.18;3.60;;;;;;;;;;8282519;28;20079;-72
2023/10/13 23:55:50;;;;;;;12.48;4.68;;;;;;;;;;8282214;28;20484;-72
2023/10/13 23:59:54;;;;;;;13.70;4.38;;;;;;;;;;8282031;28;20032;-72
